首页
METAR-TAF:

METAR-TAF

机场 :

Northwest Florida Regional Airport / Eglin Air Force Base

瓦尔帕莱索, 佛罗里达州, 美国

纬度: 30-29N, 经度: 086-31W, 海拔: 26米

当前天气观测

该预报发布于52分钟前的11:56 UTC
风速5节,风向东转东北
温度 2°C
湿度 80%
气压 1025 hPa
能見度: 16.1公里
天空无云

METAR: KVPS 231156Z AUTO 06005KT 10SM CLR 02/M01 A3027 RMK AO2 SLP258 T00231011 10040 20020 50000 $

时间: 06:48 (12:48 UTC)

预报

该预报发布于2小时和48分钟前的10:00 UTC
预报有效从23日的 10点(UTC)到 24日的 16点(UTC)
风速6节,风向多变
能见度10公里或以上
少量云层高于25000英尺
成为
从 23日的 18点(UTC)到 23日的 19点(UTC)
风速6节,风向南转南东
能见度10公里或以上
少量云层高于12000英尺
少量云层高于25000英尺
成为
从 24日的 03点(UTC)到 24日的 04点(UTC)
风速6节,风向
能见度10公里或以上
少量云层高于2500英尺
散云层高于10000英尺
多云层高于15000英尺
多云层高于25000英尺
成为
从 24日的 10点(UTC)到 24日的 11点(UTC)
风速6节,风向东南
能見度: 9000
多云层高于1800英尺
多云层高于2500英尺
阴天层高于4000英尺
轻雾, 附近有阵雨
成为
从 24日的 15点(UTC)到 24日的 16点(UTC)
风速6节,风向
能見度: 4800
少量云层高于500英尺
阴天层高于1000英尺
毛毛雨, 轻雾

TAF: KVPS 231000Z 2310/2416 VRB06KT 9999 FEW250 QNH3027INS BECMG 2318/2319 15006KT 9999 FEW120 FEW250 QNH3022INS BECMG 2403/2404 10006KT 9999 FEW025 SCT100 BKN150 BKN250 QNH3015INS BECMG 2410/2411 13006KT 9000 BR VCSH BKN018 BKN025 OVC040 QNH2999INS BECMG 2415/2416 17006KT 4800 DZ BR FEW005 OVC010 QNH3002INS TX17/2320Z TN03/2310Z

超过4000个机场的气象观测和天气预报(METAR&TAF报告)。

可查询的气象台以黄色和红色小点在地图上表示。

将鼠标移到小点上方,可查看气象台名称。

然后点击查看天气观测和预报。

如需切换地图:点击带黑十字的绿色按钮放大地图;点击带横线的绿色按钮缩小地图;或者点击绿色箭头查看邻近地区的地图。


METAR-TAF: